createdAt,value
2022-12-03T00:03:29.426Z,579.05155
2022-12-03T00:08:31.253Z,547.92157
2022-12-03T00:13:32.821Z,536.30769
2022-12-03T00:18:34.605Z,509.13761
2022-12-03T00:23:41.768Z,494
2022-12-03T00:28:44.007Z,514.37037
2022-12-03T00:33:45.591Z,509.13761
2022-12-03T00:38:47.097Z,509.13761
2022-12-03T00:43:48.781Z,530.66667
2022-12-03T00:48:50.613Z,519.70093
2022-12-03T00:53:52.272Z,519.70093
2022-12-03T00:58:54.029Z,514.37037
2022-12-03T01:03:55.788Z,519.70093
2022-12-03T01:08:57.375Z,504
2022-12-03T01:13:58.901Z,509.13761
2022-12-03T01:19:00.765Z,494
2022-12-03T01:24:02.376Z,498.95495
2022-12-03T01:29:03.896Z,466.0339
2022-12-03T01:34:05.414Z,453.09091
2022-12-03T01:39:06.883Z,440.77419
2022-12-03T01:44:08.572Z,429.03937
2022-12-03T01:49:10.449Z,421.51938
2022-12-03T01:54:12.026Z,414.22901
2022-12-03T01:59:13.513Z,396.94118
2022-12-03T02:04:15.318Z,390.37681
2022-12-03T02:09:16.999Z,387.16547
2022-12-03T02:14:18.722Z,377.80282
2022-12-03T02:19:20.852Z,374.76923
2022-12-03T02:24:22.489Z,371.77778
2022-12-03T02:29:24.165Z,371.77778
2022-12-03T02:34:26.080Z,354.66667
2022-12-03T02:39:27.574Z,357.42282
2022-12-03T02:44:29.148Z,360.21622
2022-12-03T02:49:31.016Z,371.77778
2022-12-03T02:54:32.769Z,390.37681
2022-12-03T02:59:34.588Z,384
2022-12-03T03:04:36.198Z,374.76923
2022-12-03T03:09:37.670Z,371.77778
2022-12-03T03:14:39.169Z,365.91781
2022-12-03T03:19:41.018Z,393.63504
2022-12-03T03:24:42.672Z,396.94118
2022-12-03T03:29:44.267Z,410.66667
2022-12-03T03:34:45.746Z,414.22901
2022-12-03T03:39:47.296Z,429.03937
2022-12-03T03:44:48.948Z,432.88889
2022-12-03T03:49:50.665Z,417.84615
2022-12-03T03:54:52.756Z,429.03937
2022-12-03T03:59:54.910Z,403.70149
2022-12-03T04:04:56.935Z,414.22901
2022-12-03T04:09:58.713Z,410.66667
2022-12-03T04:15:00.506Z,377.80282
2022-12-03T04:20:02.664Z,410.66667
2022-12-03T04:25:04.612Z,396.94118
2022-12-03T04:30:06.449Z,425.25
2022-12-03T04:35:08.576Z,436.8
2022-12-03T04:40:10.161Z,421.51938
2022-12-03T04:45:11.652Z,410.66667
2022-12-03T04:50:13.483Z,436.8
2022-12-03T04:55:14.897Z,425.25
2022-12-03T05:00:16.764Z,429.03937
2022-12-03T05:05:18.809Z,432.88889
2022-12-03T05:10:20.712Z,440.77419
2022-12-03T05:15:22.765Z,498.95495
2022-12-03T05:20:24.969Z,466.0339
2022-12-03T05:25:26.731Z,457.33333
2022-12-03T05:30:28.335Z,484.35088
2022-12-03T05:35:30.028Z,498.95495
2022-12-03T05:40:31.833Z,484.35088
2022-12-03T05:45:33.499Z,489.13274
2022-12-03T05:50:35.271Z,542.05825
2022-12-03T05:55:36.915Z,547.92157
2022-12-03T06:00:42.412Z,530.66667
2022-12-03T06:05:45.229Z,519.70093
2022-12-03T06:10:47.301Z,542.05825
2022-12-03T06:15:49.247Z,599.31915
2022-12-03T06:20:51.338Z,652.04598
2022-12-03T06:25:53.041Z,613.56522
2022-12-03T06:30:54.877Z,592.42105
2022-12-03T06:35:56.873Z,660.27907
2022-12-03T06:40:58.741Z,628.44444
2022-12-03T06:46:00.739Z,599.31915
2022-12-03T06:51:02.947Z,644
2022-12-03T06:56:04.881Z,620.92308
2022-12-03T07:01:06.837Z,660.27907
2022-12-03T07:06:09.067Z,628.44444
2022-12-03T07:11:11.186Z,599.31915
2022-12-03T07:16:13.116Z,733.74359
2022-12-03T07:21:15.417Z,695.21951
2022-12-03T07:26:17.165Z,704.49383
2022-12-03T07:31:19.071Z,695.21951
2022-12-03T07:36:21.053Z,799.55556
2022-12-03T07:41:22.903Z,686.16867
2022-12-03T07:46:24.901Z,686.16867
2022-12-03T07:51:32.023Z,668.70588
2022-12-03T07:56:34.145Z,695.21951
2022-12-03T08:01:35.930Z,660.27907
2022-12-03T08:06:37.480Z,695.21951
2022-12-03T08:11:39.086Z,704.49383
2022-12-03T08:16:41.025Z,723.74684
2022-12-03T08:21:42.969Z,754.52632
2022-12-03T08:26:44.802Z,799.55556
2022-12-03T08:31:46.659Z,714
2022-12-03T08:36:48.630Z,744
2022-12-03T08:41:50.227Z,776.43243
2022-12-03T08:46:51.807Z,776.43243
2022-12-03T08:51:53.685Z,776.43243
2022-12-03T10:24:46.861Z,8.36782
2022-12-03T10:29:48.415Z,811.60563
2022-12-03T10:34:50.049Z,877.33333
2022-12-03T10:39:55.759Z,849.88235
2022-12-03T10:44:58.043Z,863.40299
2022-12-03T10:49:59.683Z,906.5
2022-12-03T10:55:01.512Z,877.33333
2022-12-03T11:00:02.947Z,877.33333
2022-12-03T11:05:04.569Z,811.60563
2022-12-03T11:10:06.185Z,877.33333
2022-12-03T11:15:07.672Z,937.54839
2022-12-03T11:20:09.127Z,921.77778
2022-12-03T11:25:11.020Z,824
2022-12-03T11:30:12.778Z,877.33333
2022-12-03T11:35:14.236Z,906.5
2022-12-03T11:40:15.857Z,891.69231
2022-12-03T11:45:17.474Z,937.54839
2022-12-03T11:50:19.023Z,863.40299
2022-12-03T11:55:20.865Z,891.69231
2022-12-03T12:00:22.671Z,906.5
2022-12-03T12:05:24.191Z,906.5
2022-12-03T12:10:25.676Z,877.33333
2022-12-03T12:20:42.852Z,906.5
2022-12-03T12:25:47.267Z,906.5
2022-12-03T12:30:51.238Z,877.33333
2022-12-03T12:35:52.867Z,906.5
2022-12-03T12:40:54.536Z,849.88235
2022-12-03T12:45:56.003Z,906.5
2022-12-03T12:50:57.514Z,906.5
2022-12-03T12:55:59.349Z,921.77778
2022-12-03T13:01:01.216Z,953.83607
2022-12-03T13:06:02.777Z,891.69231
2022-12-03T13:11:04.454Z,921.77778
2022-12-03T13:16:06.315Z,953.83607
2022-12-03T13:21:07.938Z,906.5
2022-12-03T13:26:26.264Z,836.75362
2022-12-03T13:31:34.299Z,970.66667
2022-12-03T13:36:35.859Z,953.83607
2022-12-03T13:41:37.597Z,970.66667
2022-12-03T13:46:39.458Z,970.66667
2022-12-03T13:51:41.288Z,921.77778
2022-12-03T13:56:44.098Z,891.69231
2022-12-03T14:01:46.144Z,906.5
2022-12-03T14:06:48.239Z,937.54839
2022-12-03T14:11:50.312Z,921.77778
2022-12-03T14:16:56.693Z,921.77778
2022-12-03T14:22:01.490Z,921.77778
2022-12-03T14:27:03.551Z,824
2022-12-03T14:37:25.517Z,906.5
2022-12-03T14:42:27.177Z,877.33333
2022-12-03T14:47:28.665Z,836.75362
2022-12-03T14:52:30.371Z,906.5
2022-12-03T14:57:32.021Z,824
2022-12-03T15:02:33.889Z,824
2022-12-03T15:07:35.733Z,799.55556
2022-12-03T15:12:37.612Z,765.33333
2022-12-03T15:17:39.461Z,765.33333
2022-12-03T15:22:42.916Z,754.52632
2022-12-03T15:27:44.495Z,754.52632
2022-12-03T15:32:46.071Z,723.74684
2022-12-03T15:37:48.036Z,704.49383
2022-12-03T15:42:49.884Z,754.52632
2022-12-03T15:47:51.754Z,733.74359
2022-12-03T15:52:53.741Z,733.74359
2022-12-03T15:57:55.628Z,849.88235
2022-12-03T16:02:57.442Z,849.88235
2022-12-03T16:07:59.643Z,811.60563
2022-12-03T16:13:01.417Z,787.83562
2022-12-03T16:18:03.187Z,776.43243
2022-12-03T16:23:04.836Z,836.75362
2022-12-03T16:28:06.652Z,849.88235
2022-12-03T16:33:08.441Z,863.40299
2022-12-03T16:38:10.491Z,733.74359
2022-12-03T16:43:12.423Z,585.66667
2022-12-03T16:48:14.224Z,620.92308
2022-12-03T16:53:15.719Z,606.36559
2022-12-03T16:58:17.325Z,504
2022-12-03T17:03:19.035Z,536.30769
2022-12-03T17:08:20.820Z,519.70093
2022-12-03T17:13:22.335Z,530.66667
2022-12-03T17:18:23.798Z,470.49573
2022-12-03T17:23:25.660Z,453.09091
2022-12-03T17:28:27.139Z,414.22901
2022-12-03T17:33:28.658Z,393.63504
2022-12-03T17:38:40.153Z,400.2963
2022-12-03T17:43:41.634Z,407.15789
2022-12-03T17:48:43.212Z,410.66667
2022-12-03T17:53:45.007Z,504
2022-12-03T17:58:46.483Z,547.92157
2022-12-03T18:03:48.073Z,475.03448
2022-12-03T18:08:49.771Z,466.0339
2022-12-03T18:13:51.435Z,489.13274
2022-12-03T18:18:56.595Z,414.22901
2022-12-03T18:24:00.126Z,444.81301
2022-12-03T18:29:01.855Z,444.81301
2022-12-03T18:34:03.531Z,425.25
2022-12-03T18:39:05.328Z,371.77778
2022-12-03T18:44:06.992Z,390.37681
2022-12-03T18:49:08.473Z,357.42282
2022-12-03T18:54:10.142Z,396.94118
2022-12-03T18:59:11.571Z,377.80282
2022-12-03T19:04:13.133Z,363.04762
2022-12-03T19:09:14.707Z,393.63504
2022-12-03T19:14:16.313Z,396.94118
2022-12-03T19:19:18.507Z,387.16547
2022-12-03T19:24:24.830Z,341.41935
2022-12-03T19:29:26.829Z,368.82759
2022-12-03T19:34:28.356Z,393.63504
2022-12-03T19:39:29.815Z,432.88889
2022-12-03T19:44:31.432Z,440.77419
2022-12-03T19:49:32.922Z,429.03937
2022-12-03T19:54:34.572Z,448.91803
2022-12-03T19:59:37.910Z,444.81301
2022-12-03T20:04:39.514Z,414.22901
2022-12-03T20:09:41.059Z,440.77419
2022-12-03T20:14:42.635Z,504
2022-12-03T20:19:44.869Z,484.35088
2022-12-03T20:24:46.739Z,470.49573
2022-12-03T20:29:48.369Z,498.95495
2022-12-03T20:34:50.732Z,475.03448
2022-12-03T20:39:52.697Z,436.8
2022-12-03T20:44:54.291Z,390.37681
2022-12-03T20:49:56.794Z,374.76923
2022-12-03T20:54:58.879Z,377.80282
2022-12-03T21:00:00.354Z,368.82759
2022-12-03T21:05:01.916Z,374.76923
2022-12-03T21:10:05.812Z,368.82759
2022-12-03T21:15:07.284Z,357.42282
2022-12-03T21:20:08.783Z,351.94702
2022-12-03T21:25:10.602Z,363.04762
2022-12-03T21:30:12.093Z,377.80282
2022-12-03T21:35:13.725Z,387.16547
2022-12-03T21:40:15.346Z,494
2022-12-03T21:45:16.948Z,553.90099
2022-12-03T21:50:21.127Z,547.92157
2022-12-03T21:55:22.988Z,547.92157
2022-12-03T22:00:24.508Z,566.22222
2022-12-03T22:05:26.235Z,547.92157
2022-12-03T22:10:28.144Z,560
2022-12-03T22:15:29.716Z,560
2022-12-03T22:20:31.192Z,542.05825
2022-12-03T22:25:32.824Z,536.30769
2022-12-03T22:30:34.385Z,542.05825
2022-12-03T22:35:36.056Z,547.92157
2022-12-03T22:40:37.848Z,542.05825
2022-12-03T22:45:39.609Z,530.66667
2022-12-03T22:50:41.228Z,509.13761
2022-12-03T22:55:42.885Z,475.03448
2022-12-03T23:00:44.406Z,475.03448
2022-12-03T23:05:46.088Z,466.0339
2022-12-03T23:10:47.811Z,466.0339
2022-12-03T23:15:49.387Z,448.91803
2022-12-03T23:20:51.055Z,436.8
2022-12-03T23:25:52.930Z,432.88889
2022-12-03T23:30:54.679Z,421.51938
2022-12-03T23:35:56.244Z,417.84615
2022-12-03T23:40:57.824Z,410.66667
2022-12-03T23:45:59.476Z,410.66667
2022-12-03T23:51:01.206Z,407.15789
2022-12-03T23:56:02.946Z,396.94118
